createdAt,value
2018-10-12T00:01:16.876Z,8.40
2018-10-12T00:03:46.601Z,8.57
2018-10-12T00:06:15.873Z,7.97
2018-10-12T00:08:45.799Z,8.93
2018-10-12T00:11:16.201Z,7.97
2018-10-12T00:13:46.585Z,8.73
2018-10-12T00:16:16.655Z,8.95
2018-10-12T00:18:45.867Z,10.17
2018-10-12T00:21:15.613Z,9.70
2018-10-12T00:23:44.850Z,9.97
2018-10-12T00:26:14.650Z,9.90
2018-10-12T00:28:43.870Z,10.77
2018-10-12T00:31:13.922Z,8.43
2018-10-12T00:33:43.897Z,8.30
2018-10-12T00:36:13.810Z,8.20
2018-10-12T00:38:43.603Z,8.20
2018-10-12T00:41:12.883Z,8.30
2018-10-12T00:43:42.810Z,8.68
2018-10-12T00:46:12.186Z,8.80
2018-10-12T00:48:41.657Z,9.23
2018-10-12T00:51:10.806Z,9.23
2018-10-12T00:53:40.624Z,9.10
2018-10-12T00:56:09.831Z,9.10
2018-10-12T00:58:39.696Z,9.55
2018-10-12T01:01:08.927Z,8.80
2018-10-12T01:03:38.762Z,8.23
2018-10-12T01:06:08.050Z,8.55
2018-10-12T01:08:37.746Z,8.50
2018-10-12T01:11:06.921Z,8.43
2018-10-12T01:13:36.637Z,7.95
2018-10-12T01:16:05.837Z,9.47
2018-10-12T01:18:35.171Z,9.00
2018-10-12T01:23:33.220Z,8.03
2018-10-12T01:28:31.734Z,8.95
2018-10-12T01:31:01.834Z,9.00
2018-10-12T01:33:31.625Z,9.00
2018-10-12T01:38:29.354Z,9.25
2018-10-12T01:40:58.787Z,9.50
2018-10-12T01:43:27.853Z,8.58
2018-10-12T01:46:30.590Z,8.03
2018-10-12T01:51:25.755Z,8.17
2018-10-12T01:53:53.581Z,8.97
2018-10-12T01:56:21.266Z,8.93
2018-10-12T01:58:48.984Z,9.70
2018-10-12T02:01:16.799Z,8.10
2018-10-12T02:03:45.054Z,8.90
2018-10-12T02:08:40.206Z,9.70
2018-10-12T02:11:08.047Z,8.43
2018-10-12T02:16:03.174Z,8.90
2018-10-12T02:18:31.224Z,8.00
2018-10-12T02:20:59.280Z,8.33
2018-10-12T02:23:27.062Z,8.23
2018-10-12T02:25:54.877Z,8.50
2018-10-12T02:28:22.714Z,8.57
2018-10-12T02:30:50.539Z,7.78
2018-10-12T02:33:18.606Z,8.37
2018-10-12T02:35:46.301Z,9.17
2018-10-12T02:38:14.218Z,8.37
2018-10-12T02:40:41.942Z,8.43
2018-10-12T02:43:09.689Z,8.77
2018-10-12T02:45:37.710Z,10.45
2018-10-12T02:48:05.883Z,11.47
2018-10-12T02:50:33.699Z,12.03
2018-10-12T02:53:01.961Z,11.57
2018-10-12T02:57:57.354Z,11.87
2018-10-12T03:00:25.179Z,10.97
2018-10-12T03:02:52.967Z,10.80
2018-10-12T03:07:48.386Z,9.10
2018-10-12T03:10:16.214Z,10.17
2018-10-12T03:12:43.858Z,9.93
2018-10-12T03:15:11.839Z,9.90
2018-10-12T03:17:39.696Z,9.33
2018-10-12T03:20:07.490Z,10.67
2018-10-12T03:22:35.327Z,9.93
2018-10-12T03:25:03.050Z,11.67
2018-10-12T03:27:35.761Z,11.47
2018-10-12T03:30:03.787Z,12.70
2018-10-12T03:32:33.886Z,13.10
2018-10-12T03:35:03.652Z,12.82
2018-10-12T03:37:32.998Z,11.90
2018-10-12T03:40:02.646Z,11.60
2018-10-12T03:42:33.791Z,11.03
2018-10-12T03:45:03.826Z,10.30
2018-10-12T03:47:33.794Z,10.80
2018-10-12T03:52:43.768Z,10.53
2018-10-12T03:55:11.623Z,10.70
2018-10-12T03:57:39.597Z,11.53
2018-10-12T04:00:07.460Z,11.70
2018-10-12T04:02:35.229Z,12.43
2018-10-12T04:05:03.038Z,12.40
2018-10-12T04:07:32.758Z,11.45
2018-10-12T04:10:02.036Z,11.97
2018-10-12T04:12:31.681Z,11.53
2018-10-12T04:15:00.773Z,11.65
2018-10-12T04:17:29.945Z,12.28
2018-10-12T04:19:59.721Z,11.22
2018-10-12T04:24:48.828Z,11.33
2018-10-12T04:27:18.849Z,10.93
2018-10-12T04:29:48.732Z,11.08
2018-10-12T04:32:17.907Z,11.28
2018-10-12T04:34:47.905Z,10.88
2018-10-12T04:37:17.827Z,11.50
2018-10-12T04:42:25.822Z,12.40
2018-10-12T04:44:55.294Z,11.73
2018-10-12T04:49:56.843Z,11.57
2018-10-12T04:52:27.849Z,12.13
2018-10-12T04:54:57.711Z,11.35
2018-10-12T04:57:26.876Z,10.82
2018-10-12T04:59:56.801Z,10.90
2018-10-12T05:02:25.993Z,11.50
2018-10-12T05:04:55.799Z,10.95
2018-10-12T05:07:25.783Z,11.78
2018-10-12T05:09:55.182Z,11.18
2018-10-12T05:14:22.621Z,10.63
2018-10-12T05:16:51.797Z,11.55
2018-10-12T05:19:21.634Z,10.95
2018-10-12T05:21:50.931Z,11.15
2018-10-12T05:25:58.877Z,10.70
2018-10-12T05:28:29.855Z,11.95
2018-10-12T05:31:00.618Z,10.80
2018-10-12T05:33:29.782Z,10.23
2018-10-12T05:37:11.207Z,13.10
2018-10-12T05:39:40.691Z,10.43
2018-10-12T05:42:09.893Z,10.20
2018-10-12T05:46:28.860Z,10.47
2018-10-12T05:49:16.810Z,10.40
2018-10-12T05:53:33.938Z,11.80
2018-10-12T05:58:32.850Z,14.97
2018-10-12T06:03:31.537Z,10.30
2018-10-12T06:06:00.855Z,11.27
2018-10-12T06:08:30.641Z,9.83
2018-10-12T06:11:03.786Z,10.87
2018-10-12T06:13:33.762Z,12.57
2018-10-12T06:16:02.961Z,10.50
2018-10-12T06:21:01.856Z,11.30
2018-10-12T06:23:31.687Z,12.13
2018-10-12T06:26:01.213Z,10.10
2018-10-12T06:28:30.837Z,12.13
2018-10-12T06:31:00.790Z,9.60
2018-10-12T06:33:30.641Z,9.53
2018-10-12T06:36:00.754Z,9.03
2018-10-12T06:38:30.869Z,10.07
2018-10-12T06:41:00.766Z,9.17
2018-10-12T06:43:30.319Z,9.93
2018-10-12T06:45:59.939Z,10.37
2018-10-12T06:50:58.744Z,11.03
2018-10-12T06:53:28.222Z,10.40
2018-10-12T06:55:58.922Z,12.40
2018-10-12T06:58:28.969Z,9.43
2018-10-12T07:00:59.998Z,9.50
2018-10-12T07:03:29.971Z,9.63
2018-10-12T07:10:47.922Z,9.90
2018-10-12T07:13:17.978Z,9.10
2018-10-12T07:15:49.923Z,9.40
2018-10-12T07:18:19.952Z,9.00
2018-10-12T07:20:49.938Z,11.27
2018-10-12T07:23:19.946Z,8.80
2018-10-12T07:25:49.943Z,9.70
2018-10-12T07:28:19.973Z,9.80
2018-10-12T07:30:50.014Z,12.83
2018-10-12T07:35:48.962Z,8.80
2018-10-12T07:38:18.983Z,9.30
2018-10-12T07:40:49.023Z,8.30
2018-10-12T07:43:19.023Z,9.38
2018-10-12T07:45:48.984Z,8.53
2018-10-12T07:48:19.166Z,8.73
2018-10-12T07:50:49.862Z,8.65
2018-10-12T07:53:20.069Z,8.20
2018-10-12T07:59:38.048Z,8.67
2018-10-12T08:04:37.010Z,8.08
2018-10-12T08:07:07.007Z,8.80
2018-10-12T08:09:37.061Z,8.05
2018-10-12T08:12:07.018Z,8.38
2018-10-12T08:14:37.006Z,8.03
2018-10-12T08:18:31.939Z,7.75
2018-10-12T08:21:00.622Z,7.97
2018-10-12T08:23:28.795Z,8.10
2018-10-12T08:25:56.607Z,8.40
2018-10-12T08:28:26.205Z,7.75
2018-10-12T08:30:56.053Z,7.77
2018-10-12T08:33:26.201Z,8.67
2018-10-12T08:35:56.019Z,8.67
2018-10-12T08:38:26.046Z,11.12
2018-10-12T08:40:56.043Z,10.65
2018-10-12T08:43:26.038Z,9.05
2018-10-12T08:45:56.021Z,9.93
2018-10-12T08:48:25.997Z,8.35
2018-10-12T08:50:56.026Z,9.20
2018-10-12T08:53:26.034Z,8.15
2018-10-12T08:55:56.039Z,7.92
2018-10-12T08:58:26.990Z,8.23
2018-10-12T09:00:56.981Z,8.07
2018-10-12T09:03:26.988Z,7.97
2018-10-12T09:05:56.995Z,7.83
2018-10-12T09:08:26.994Z,12.97
2018-10-12T09:10:56.978Z,8.63
2018-10-12T09:13:26.975Z,8.07
2018-10-12T09:15:57.023Z,9.00
2018-10-12T09:18:26.975Z,7.83
2018-10-12T09:20:56.968Z,7.60
2018-10-12T09:26:05.776Z,7.55
2018-10-12T09:28:33.641Z,9.57
2018-10-12T09:31:01.483Z,7.93
2018-10-12T09:33:29.318Z,7.73
2018-10-12T09:35:57.191Z,8.40
2018-10-12T09:40:55.993Z,10.03
2018-10-12T09:43:25.989Z,8.27
2018-10-12T09:45:55.947Z,7.90
2018-10-12T09:48:25.945Z,8.20
2018-10-12T09:50:55.992Z,13.30
2018-10-12T09:56:08.870Z,11.30
2018-10-12T09:58:36.708Z,9.97
2018-10-12T10:01:10.642Z,12.63
2018-10-12T10:03:44.502Z,10.57
2018-10-12T10:06:12.473Z,10.63
2018-10-12T10:08:40.255Z,13.37
2018-10-12T10:11:08.550Z,12.53
2018-10-12T10:13:36.326Z,11.00
2018-10-12T10:16:04.217Z,9.93
2018-10-12T10:18:32.015Z,14.30
2018-10-12T10:20:59.770Z,10.73
2018-10-12T10:23:27.601Z,8.73
2018-10-12T10:25:55.436Z,14.40
2018-10-12T10:28:23.209Z,12.57
2018-10-12T10:30:50.807Z,15.80
2018-10-12T10:33:18.929Z,7.80
2018-10-12T10:35:46.751Z,8.28
2018-10-12T10:38:16.890Z,17.67
2018-10-12T10:45:44.845Z,17.47
2018-10-12T10:48:14.672Z,13.50
2018-10-12T10:50:43.898Z,60.13
2018-10-12T10:58:11.782Z,18.20
2018-10-12T11:03:03.957Z,10.33
2018-10-12T11:05:33.991Z,11.33
2018-10-12T11:08:03.958Z,11.27
2018-10-12T11:10:33.967Z,12.20
2018-10-12T11:13:04.043Z,9.40
2018-10-12T11:15:33.974Z,8.23
2018-10-12T11:18:03.885Z,6.80
2018-10-12T11:20:33.927Z,8.47
2018-10-12T11:23:03.939Z,5.62
2018-10-12T11:25:33.994Z,8.43
2018-10-12T11:28:03.951Z,12.73
2018-10-12T11:30:33.954Z,11.47
2018-10-12T11:33:54.942Z,6.77
2018-10-12T11:36:24.921Z,10.13
2018-10-12T11:38:54.989Z,7.75
2018-10-12T11:41:24.967Z,8.53
2018-10-12T11:43:54.951Z,8.60
2018-10-12T11:46:24.938Z,7.60
2018-10-12T11:48:55.643Z,11.70
2018-10-12T11:51:25.030Z,6.80
2018-10-12T11:53:54.922Z,6.40
2018-10-12T11:56:24.899Z,8.63
2018-10-12T12:01:24.071Z,11.13
2018-10-12T12:06:49.950Z,8.00
2018-10-12T12:09:19.985Z,6.27
2018-10-12T12:11:49.993Z,5.00
2018-10-12T12:14:20.008Z,8.30
2018-10-12T12:16:50.480Z,4.50
2018-10-12T12:19:20.983Z,4.47
2018-10-12T12:21:50.985Z,5.25
2018-10-12T12:28:02.958Z,4.43
2018-10-12T12:30:33.501Z,4.90
2018-10-12T12:33:02.983Z,7.23
2018-10-12T12:35:33.296Z,10.27
2018-10-12T12:38:03.029Z,5.33
2018-10-12T12:40:32.970Z,10.00
2018-10-12T12:43:02.930Z,6.93
2018-10-12T12:45:32.873Z,6.63
2018-10-12T12:48:03.129Z,8.60
2018-10-12T12:50:32.874Z,4.70
2018-10-12T12:58:00.950Z,6.17
2018-10-12T13:00:34.012Z,8.87
2018-10-12T13:03:03.930Z,7.47
2018-10-12T13:05:33.958Z,3.80
2018-10-12T13:08:03.953Z,4.73
2018-10-12T13:10:33.965Z,7.03
2018-10-12T13:13:03.995Z,5.20
2018-10-12T13:15:35.030Z,9.47
2018-10-12T13:18:04.965Z,8.67
2018-10-12T13:21:52.749Z,8.30
2018-10-12T13:24:20.803Z,9.00
2018-10-12T13:26:48.655Z,7.55
2018-10-12T13:31:43.634Z,8.57
2018-10-12T13:34:11.423Z,13.17
2018-10-12T13:36:39.227Z,12.68
2018-10-12T13:39:10.314Z,16.67
2018-10-12T13:41:38.439Z,10.47
2018-10-12T13:44:06.543Z,12.00
2018-10-12T13:46:34.624Z,6.67
2018-10-12T13:49:02.349Z,9.57
2018-10-12T13:51:30.223Z,7.40
2018-10-12T13:53:57.970Z,4.90
2018-10-12T13:56:25.907Z,4.87
2018-10-12T13:58:54.362Z,6.03
2018-10-12T14:01:22.169Z,6.10
2018-10-12T14:03:50.050Z,7.50
2018-10-12T14:06:17.978Z,4.90
2018-10-12T14:08:45.890Z,6.23
2018-10-12T14:11:13.777Z,8.73
2018-10-12T14:13:41.819Z,6.63
2018-10-12T14:16:09.702Z,7.92
2018-10-12T14:18:37.655Z,2.23
2018-10-12T14:21:05.616Z,2.57
2018-10-12T14:24:02.759Z,6.53
2018-10-12T14:26:31.968Z,5.27
2018-10-12T14:31:30.734Z,2.97
2018-10-12T14:34:00.807Z,3.70
2018-10-12T14:36:30.838Z,9.80
2018-10-12T14:39:00.751Z,15.67
2018-10-12T14:41:30.635Z,6.50
2018-10-12T14:47:48.961Z,7.08
2018-10-12T14:50:18.653Z,7.40
2018-10-12T14:55:16.887Z,6.40
2018-10-12T14:57:46.655Z,5.33
2018-10-12T15:00:15.808Z,3.17
2018-10-12T15:02:45.853Z,4.80
2018-10-12T15:05:15.645Z,6.28
2018-10-12T15:07:44.874Z,4.07
2018-10-12T15:10:14.727Z,4.13
2018-10-12T15:12:43.971Z,6.70
2018-10-12T15:17:48.761Z,9.28
2018-10-12T15:20:17.607Z,3.37
2018-10-12T15:24:27.670Z,4.78
2018-10-12T15:26:55.511Z,6.80
2018-10-12T15:29:23.411Z,4.87
2018-10-12T15:31:51.207Z,7.15
2018-10-12T15:34:18.857Z,13.50
2018-10-12T15:36:47.833Z,9.23
2018-10-12T15:39:15.694Z,8.20
2018-10-12T15:41:43.589Z,17.52
2018-10-12T15:44:12.839Z,22.73
2018-10-12T15:46:42.815Z,9.37
2018-10-12T15:49:12.630Z,14.47
2018-10-12T15:51:41.925Z,18.23
2018-10-12T15:54:11.614Z,17.82
2018-10-12T15:56:40.840Z,19.10
2018-10-12T15:59:10.642Z,14.13
2018-10-12T16:01:39.987Z,14.00
2018-10-12T16:04:09.926Z,18.90
2018-10-12T16:06:40.803Z,21.15
2018-10-12T16:09:10.607Z,7.40
2018-10-12T16:11:39.793Z,7.83
2018-10-12T16:14:09.197Z,9.20
2018-10-12T16:19:07.899Z,21.93
2018-10-12T16:21:37.673Z,5.10
2018-10-12T16:24:12.007Z,7.00
2018-10-12T16:26:41.827Z,10.65
2018-10-12T16:29:11.137Z,8.20
2018-10-12T16:31:40.802Z,5.28
2018-10-12T16:34:10.067Z,8.48
2018-10-12T16:37:27.789Z,5.78
2018-10-12T16:39:55.834Z,8.20
2018-10-12T16:42:23.736Z,8.53
2018-10-12T16:44:51.583Z,8.70
2018-10-12T16:47:19.754Z,8.07
2018-10-12T16:49:47.587Z,11.93
2018-10-12T16:52:15.301Z,10.27
2018-10-12T16:54:43.035Z,7.10
2018-10-12T16:57:11.306Z,6.80
2018-10-12T16:59:39.214Z,11.57
2018-10-12T17:02:06.970Z,7.70
2018-10-12T17:04:34.781Z,8.47
2018-10-12T17:07:04.160Z,8.83
2018-10-12T17:14:29.937Z,12.45
2018-10-12T17:16:59.579Z,12.13
2018-10-12T17:19:28.866Z,10.78
2018-10-12T17:21:58.185Z,11.90
2018-10-12T17:24:27.613Z,8.63
2018-10-12T17:29:25.154Z,11.35
2018-10-12T17:31:54.714Z,10.58
2018-10-12T17:34:23.844Z,11.12
2018-10-12T17:36:53.090Z,11.10
2018-10-12T17:39:21.834Z,10.80
2018-10-12T17:44:18.991Z,14.03
2018-10-12T17:46:48.911Z,10.80
2018-10-12T17:49:18.628Z,14.87
2018-10-12T17:54:16.042Z,20.85
2018-10-12T17:56:45.662Z,16.15
2018-10-12T18:04:10.975Z,17.55
2018-10-12T18:06:40.599Z,18.95
2018-10-12T18:11:38.763Z,16.27
2018-10-12T18:14:08.884Z,14.83
2018-10-12T18:16:38.748Z,13.95
2018-10-12T18:19:08.867Z,12.28
2018-10-12T18:21:38.626Z,16.65
2018-10-12T18:24:07.895Z,17.73
2018-10-12T18:26:37.751Z,14.68
2018-10-12T18:29:07.027Z,13.00
2018-10-12T18:31:36.870Z,13.70
2018-10-12T18:34:06.642Z,16.87
2018-10-12T18:36:35.971Z,18.10
2018-10-12T18:41:36.640Z,16.10
2018-10-12T18:44:05.819Z,14.53
2018-10-12T18:49:17.854Z,20.20
2018-10-12T18:51:46.368Z,16.57
2018-10-12T18:54:14.721Z,21.90
2018-10-12T18:56:43.283Z,17.32
2018-10-12T19:01:39.954Z,16.17
2018-10-12T19:04:07.919Z,19.43
2018-10-12T19:06:36.033Z,26.05
2018-10-12T19:09:08.752Z,18.95
2018-10-12T19:11:38.823Z,18.87
2018-10-12T19:14:08.543Z,20.50
2018-10-12T19:16:37.726Z,17.90
2018-10-12T19:19:07.765Z,17.15
2018-10-12T19:24:05.702Z,19.35
2018-10-12T19:26:33.921Z,20.12
2018-10-12T19:29:03.771Z,20.10
2018-10-12T19:31:33.060Z,18.52
2018-10-12T19:34:02.616Z,18.55
2018-10-12T19:36:32.615Z,17.50
2018-10-12T19:41:30.065Z,22.05
2018-10-12T19:43:59.718Z,21.97
2018-10-12T19:46:28.872Z,17.85
2018-10-12T19:48:58.742Z,21.33
2018-10-12T19:51:28.609Z,20.82
2018-10-12T19:53:57.894Z,19.40
2018-10-12T19:56:27.572Z,20.27
2018-10-12T19:58:56.833Z,23.83
2018-10-12T20:01:26.763Z,18.90
2018-10-12T20:08:54.757Z,25.20
2018-10-12T20:11:23.846Z,20.90
2018-10-12T20:13:54.870Z,19.50
2018-10-12T20:16:24.773Z,23.37
2018-10-12T20:18:55.645Z,19.95
2018-10-12T20:21:25.563Z,22.13
2018-10-12T20:23:55.743Z,25.23
2018-10-12T20:26:25.722Z,30.43
2018-10-12T20:28:54.922Z,39.42
2018-10-12T20:31:24.898Z,42.23
2018-10-12T20:33:54.730Z,30.40
2018-10-12T20:36:23.965Z,49.10
2018-10-12T20:38:53.590Z,42.03
2018-10-12T20:45:34.804Z,48.63
2018-10-12T20:48:03.959Z,61.43
2018-10-12T20:50:33.918Z,59.80
2018-10-12T20:53:03.686Z,60.90
2018-10-12T20:55:32.874Z,67.80
2018-10-12T20:58:02.216Z,62.43
2018-10-12T21:04:28.637Z,62.03
2018-10-12T21:14:00.838Z,52.50
2018-10-12T21:16:30.702Z,51.90
2018-10-12T21:19:00.033Z,49.50
2018-10-12T21:21:31.746Z,46.80
2018-10-12T21:24:26.939Z,46.70
2018-10-12T21:26:58.798Z,44.00
2018-10-12T21:29:28.785Z,45.60
2018-10-12T21:31:57.606Z,46.45
2018-10-12T21:34:27.160Z,44.50
2018-10-12T21:39:27.156Z,44.40
2018-10-12T21:41:56.741Z,49.60
2018-10-12T21:44:25.703Z,47.95
2018-10-12T21:46:54.988Z,43.50
2018-10-12T21:49:25.809Z,46.50
2018-10-12T21:51:55.478Z,44.80
2018-10-12T21:54:24.158Z,45.10
2018-10-12T21:56:54.767Z,47.80
2018-10-12T21:59:24.889Z,45.50
2018-10-12T22:01:53.943Z,44.45
2018-10-12T22:06:54.876Z,40.50
2018-10-12T22:09:24.558Z,42.30
2018-10-12T22:11:55.561Z,43.20
2018-10-12T22:17:38.705Z,43.25
2018-10-12T22:20:09.218Z,38.10
2018-10-12T22:22:38.114Z,43.50
2018-10-12T22:25:07.758Z,40.10
2018-10-12T22:27:36.839Z,40.15
2018-10-12T22:30:06.099Z,41.40
2018-10-12T22:32:35.778Z,40.80
2018-10-12T22:35:05.882Z,39.00
2018-10-12T22:37:37.982Z,39.15
2018-10-12T22:40:08.634Z,38.30
2018-10-12T22:42:38.932Z,38.50
2018-10-12T22:45:09.862Z,36.80
2018-10-12T22:47:41.819Z,36.60
2018-10-12T22:50:11.811Z,39.00
2018-10-12T22:54:55.855Z,34.00
2018-10-12T22:57:25.821Z,34.43
2018-10-12T22:59:54.387Z,38.20
2018-10-12T23:02:23.623Z,39.10
2018-10-12T23:04:54.579Z,33.10
2018-10-12T23:09:52.831Z,38.30
2018-10-12T23:12:24.928Z,36.50
2018-10-12T23:14:55.503Z,35.35
2018-10-12T23:17:25.142Z,34.60
2018-10-12T23:19:56.560Z,33.50
2018-10-12T23:26:14.987Z,32.75
2018-10-12T23:28:44.886Z,35.25
2018-10-12T23:31:14.657Z,34.83
2018-10-12T23:34:00.059Z,31.85
2018-10-12T23:36:29.534Z,32.10
2018-10-12T23:38:59.318Z,29.55
2018-10-12T23:43:59.399Z,27.10
2018-10-12T23:49:00.851Z,29.80
2018-10-12T23:51:31.215Z,31.25
2018-10-12T23:54:01.199Z,27.15
